Time;durP1;ratioP1;P1;durP2;ratioP2;P2;SDS_P1;SDS_P2;PMS_P1;PMS_P2;Temp;Humidity;BMP_temperature;BMP_pressure;BME280_temperature;BME280_humidity;BME280_pressure;Samples;Min_cycle;Max_cycle;Signal;HPM_P1;HPM_P2
2021/10/25 00:00:36;;;;;;;17.45;13.30;;;;;;;8.89;100.00;101837.50;5072197;28;20383;-78
2021/10/25 00:03:01;;;;;;;21.17;12.95;;;;;;;8.91;100.00;101831.25;5072350;28;20364;-77
2021/10/25 00:05:27;;;;;;;21.60;12.60;;;;;;;8.87;100.00;101837.53;5076152;28;20028;-77
2021/10/25 00:07:53;;;;;;;17.58;12.63;;;;;;;8.83;100.00;101835.91;5076288;28;20040;-76
2021/10/25 00:10:19;;;;;;;22.60;13.93;;;;;;;8.90;100.00;101833.94;5076148;28;20375;-78
2021/10/25 00:12:44;;;;;;;18.27;13.07;;;;;;;9.00;100.00;101835.41;5076154;28;20024;-77
2021/10/25 00:15:10;;;;;;;24.58;14.13;;;;;;;9.01;100.00;101831.84;5076209;28;20036;-77
2021/10/25 00:17:36;;;;;;;22.08;13.43;;;;;;;8.80;100.00;101825.44;5075935;28;20031;-76
2021/10/25 00:20:05;;;;;;;17.85;12.93;;;;;;;8.93;100.00;101823.28;5058185;28;20035;-79
2021/10/25 00:22:31;;;;;;;21.25;13.93;;;;;;;8.91;100.00;101823.34;5076077;28;20075;-77
2021/10/25 00:24:56;;;;;;;23.70;13.63;;;;;;;8.98;100.00;101826.66;5075682;28;20028;-76
2021/10/25 00:27:22;;;;;;;23.08;12.95;;;;;;;9.02;100.00;101830.06;5074871;23;20055;-79
2021/10/25 00:29:47;;;;;;;20.30;13.52;;;;;;;8.87;100.00;101819.06;5096437;28;20489;-79
2021/10/25 00:32:12;;;;;;;20.30;13.05;;;;;;;8.89;100.00;101819.03;5078511;28;20096;-76
2021/10/25 00:34:38;;;;;;;22.77;13.27;;;;;;;8.91;100.00;101818.06;5095949;28;20462;-77
2021/10/25 00:37:04;;;;;;;19.98;13.35;;;;;;;9.09;100.00;101808.72;5077906;28;20462;-80
2021/10/25 00:39:32;;;;;;;19.73;13.43;;;;;;;9.19;100.00;101814.56;5096127;28;20028;-78
2021/10/25 00:41:59;;;;;;;18.98;13.32;;;;;;;9.20;100.00;101804.88;5095963;28;20068;-77
2021/10/25 00:44:26;;;;;;;19.92;13.15;;;;;;;9.37;100.00;101808.78;5096163;28;20028;-76
2021/10/25 00:46:51;;;;;;;22.05;13.95;;;;;;;9.06;100.00;101800.03;5095917;28;20060;-77
2021/10/25 00:49:16;;;;;;;20.15;12.75;;;;;;;9.20;100.00;101799.59;5095798;28;20107;-77
2021/10/25 00:51:43;;;;;;;21.20;13.75;;;;;;;9.53;100.00;101794.16;5095693;28;20028;-77
2021/10/25 00:54:09;;;;;;;23.80;13.05;;;;;;;9.54;99.96;101790.59;5095619;28;20024;-85
2021/10/25 00:56:34;;;;;;;21.45;12.95;;;;;;;9.61;99.82;101788.59;5099287;28;20050;-84
2021/10/25 00:59:00;;;;;;;19.55;13.50;;;;;;;9.67;99.48;101785.75;5064400;28;20032;-83
2021/10/25 01:01:25;;;;;;;19.35;13.27;;;;;;;9.66;99.05;101778.75;5084011;28;20107;-86
2021/10/25 01:03:50;;;;;;;17.98;12.32;;;;;;;9.81;98.55;101774.72;5096608;28;20043;-84
2021/10/25 01:06:16;;;;;;;21.20;12.55;;;;;;;9.70;99.63;101776.84;5096904;28;20027;-85
2021/10/25 01:08:41;;;;;;;18.00;12.95;;;;;;;9.59;99.41;101774.56;5096785;28;20360;-81
2021/10/25 01:11:07;;;;;;;20.10;12.57;;;;;;;9.71;99.46;101773.31;5077831;28;20028;-83
2021/10/25 01:13:33;;;;;;;21.25;13.07;;;;;;;9.70;100.00;101771.56;5095888;28;20107;-83
2021/10/25 01:15:59;;;;;;;18.02;12.38;;;;;;;9.86;99.02;101771.91;5077244;28;20050;-85
2021/10/25 01:18:24;;;;;;;19.38;13.40;;;;;;;9.89;98.61;101778.84;5106535;28;20024;-79
2021/10/25 01:20:49;;;;;;;20.25;12.93;;;;;;;10.07;97.80;101770.28;5116201;28;20378;-84
2021/10/25 01:23:15;;;;;;;17.50;12.40;;;;;;;10.00;98.01;101771.41;5098121;28;20110;-83
2021/10/25 01:25:41;;;;;;;20.77;13.38;;;;;;;9.99;98.25;101777.63;5115402;28;20030;-77
2021/10/25 01:28:06;;;;;;;18.73;12.70;;;;;;;10.05;98.08;101777.41;5114959;28;20048;-77
2021/10/25 01:30:31;;;;;;;22.50;12.65;;;;;;;9.96;98.22;101775.09;5115392;28;20031;-76
2021/10/25 01:32:57;;;;;;;20.40;12.93;;;;;;;9.99;97.93;101768.84;5115334;28;20023;-76
2021/10/25 01:35:22;;;;;;;19.83;12.55;;;;;;;9.84;98.82;101771.97;5115416;28;20035;-77
2021/10/25 01:37:48;;;;;;;18.50;12.43;;;;;;;9.65;99.98;101770.88;5115155;28;20077;-76
2021/10/25 01:40:13;;;;;;;21.67;12.48;;;;;;;10.01;98.60;101773.13;5115289;28;20070;-78
2021/10/25 01:42:39;;;;;;;22.05;12.48;;;;;;;10.01;98.28;101770.50;5115083;28;20047;-85
2021/10/25 01:45:05;;;;;;;18.55;12.27;;;;;;;9.97;98.36;101759.19;5115216;28;20106;-77
2021/10/25 01:47:31;;;;;;;16.77;12.38;;;;;;;9.87;98.17;101765.69;5114945;28;20462;-77
2021/10/25 01:49:56;;;;;;;20.48;12.75;;;;;;;10.15;97.70;101763.88;5097409;28;20027;-83
2021/10/25 01:52:22;;;;;;;18.27;12.20;;;;;;;9.96;97.80;101759.25;5116131;28;20085;-80
2021/10/25 01:54:47;;;;;;;22.48;12.50;;;;;;;9.97;98.20;101766.25;5115298;28;20343;-76
2021/10/25 01:57:12;;;;;;;22.90;12.95;;;;;;;10.10;97.46;101759.59;5097663;28;20442;-78
2021/10/25 01:59:39;;;;;;;19.75;12.32;;;;;;;10.01;97.42;101761.72;5115330;28;20036;-80
2021/10/25 02:02:04;;;;;;;19.30;11.80;;;;;;;9.94;98.25;101766.34;5114952;28;20027;-78
2021/10/25 02:04:31;;;;;;;19.83;12.48;;;;;;;10.13;97.81;101763.06;5096727;28;20019;-77
2021/10/25 02:06:56;;;;;;;18.55;12.75;;;;;;;10.17;97.44;101764.66;5115153;28;20466;-78
2021/10/25 02:09:22;;;;;;;20.90;13.05;;;;;;;9.94;97.04;101766.34;5114598;28;20089;-78
2021/10/25 02:11:47;;;;;;;20.00;12.82;;;;;;;9.91;97.95;101766.47;5114574;28;20386;-78
2021/10/25 02:14:13;;;;;;;17.80;12.65;;;;;;;9.76;99.85;101757.31;5096410;28;20038;-77
2021/10/25 02:16:39;;;;;;;18.70;13.13;;;;;;;9.70;99.71;101763.66;5114351;28;20497;-76
2021/10/25 02:19:04;;;;;;;23.63;14.23;;;;;;;9.95;99.62;101757.50;5096233;28;20117;-79
2021/10/25 02:21:29;;;;;;;21.13;13.00;;;;;;;10.02;99.01;101748.47;5114512;28;20027;-77
2021/10/25 02:23:55;;;;;;;21.30;12.75;;;;;;;9.68;100.00;101747.00;5114165;28;20048;-77
2021/10/25 02:26:20;;;;;;;20.23;13.43;;;;;;;9.76;100.00;101744.94;5113937;28;20076;-77
2021/10/25 02:28:46;;;;;;;19.45;13.40;;;;;;;9.65;100.00;101741.84;5094821;28;20040;-74
2021/10/25 02:31:11;;;;;;;20.75;13.73;;;;;;;9.85;100.00;101747.25;5114211;28;20096;-77
2021/10/25 02:33:37;;;;;;;22.30;13.75;;;;;;;9.95;99.11;101737.22;5095714;28;20027;-77
2021/10/25 02:36:05;;;;;;;21.77;13.35;;;;;;;9.99;99.69;101737.13;5113996;28;20106;-77
2021/10/25 02:38:31;;;;;;;18.95;12.73;;;;;;;9.97;99.68;101737.19;5113962;28;20012;-76
2021/10/25 02:40:56;;;;;;;21.58;12.98;;;;;;;9.88;99.67;101729.59;5114100;28;20028;-82
2021/10/25 02:43:21;;;;;;;22.20;13.25;;;;;;;9.92;99.14;101729.41;5114263;28;20028;-83
2021/10/25 02:45:47;;;;;;;19.83;13.95;;;;;;;10.01;99.58;101728.22;5114801;28;20029;-82
2021/10/25 02:48:13;;;;;;;17.83;12.80;;;;;;;10.09;98.68;101733.22;5115260;28;20027;-78
2021/10/25 02:50:39;;;;;;;21.23;13.35;;;;;;;9.97;99.57;101724.84;5134701;28;20030;-77
2021/10/25 02:53:07;;;;;;;23.08;13.75;;;;;;;10.15;99.20;101729.50;5135723;28;20019;-78
2021/10/25 02:55:33;;;;;;;22.48;13.65;;;;;;;9.96;100.00;101724.91;5133482;28;20024;-85
2021/10/25 02:57:58;;;;;;;21.58;13.82;;;;;;;10.03;99.99;101725.50;5114960;28;20092;-83
2021/10/25 03:00:24;;;;;;;25.40;13.98;;;;;;;10.18;99.70;101732.03;5114394;28;20028;-86
2021/10/25 03:02:49;;;;;;;22.83;14.60;;;;;;;10.10;100.00;101725.22;5114724;28;20027;-86
2021/10/25 03:05:15;;;;;;;20.98;13.88;;;;;;;9.90;100.00;101722.47;5113650;28;20035;-83
2021/10/25 03:07:41;;;;;;;21.88;14.18;;;;;;;9.91;100.00;101730.34;5114032;28;20030;-84
2021/10/25 03:10:07;;;;;;;22.65;13.95;;;;;;;10.25;100.00;101728.25;5114074;28;20027;-80
2021/10/25 03:12:33;;;;;;;21.98;13.98;;;;;;;10.35;100.00;101734.88;5113882;28;20023;-83
2021/10/25 03:14:58;;;;;;;20.38;14.35;;;;;;;10.31;100.00;101728.00;5112995;28;20076;-83
2021/10/25 03:17:25;;;;;;;21.17;13.35;;;;;;;10.11;100.00;101720.81;5113324;28;20039;-83
2021/10/25 03:19:51;;;;;;;22.35;14.02;;;;;;;10.10;100.00;101724.38;5114025;28;20020;-82
2021/10/25 03:22:16;;;;;;;21.50;13.93;;;;;;;10.08;100.00;101715.66;5113935;28;20553;-83
2021/10/25 03:24:42;;;;;;;21.13;14.18;;;;;;;10.19;100.00;101712.59;5113377;28;20482;-79
2021/10/25 03:27:07;;;;;;;21.08;13.77;;;;;;;10.31;100.00;101706.84;5095152;28;20067;-81
2021/10/25 03:29:33;;;;;;;25.02;14.68;;;;;;;10.10;100.00;101704.09;5113755;28;20044;-84
2021/10/25 03:31:59;;;;;;;23.17;14.68;;;;;;;10.00;100.00;101715.94;5113576;28;20398;-85
2021/10/25 03:34:25;;;;;;;21.13;14.57;;;;;;;9.99;100.00;101716.84;5113259;28;20026;-86
2021/10/25 03:36:51;;;;;;;23.33;15.63;;;;;;;10.15;100.00;101726.88;5113307;28;20351;-84
2021/10/25 03:39:21;;;;;;;21.70;14.63;;;;;;;10.01;100.00;101714.16;5113061;28;20469;-85
2021/10/25 03:41:48;;;;;;;23.27;15.43;;;;;;;9.93;100.00;101717.94;5113409;28;20043;-85
2021/10/25 03:44:24;;;;;;;24.40;15.60;;;;;;;10.07;100.00;101717.41;5113237;28;20402;-81
2021/10/25 03:47:01;;;;;;;24.92;15.95;;;;;;;9.92;100.00;101717.97;5114412;28;20019;-81
2021/10/25 03:52:02;;;;;;;27.90;16.02;;;;;;;10.01;100.00;101706.22;5115332;28;20474;-78
2021/10/25 03:54:46;;;;;;;27.10;16.15;;;;;;;10.01;100.00;101704.44;5113559;28;20024;-77
2021/10/25 03:57:31;;;;;;;24.00;16.08;;;;;;;9.96;100.00;101714.31;5112897;28;20523;-76
2021/10/25 04:29:36;;;;;;;30.08;17.05;;;;;;;10.13;100.00;101705.78;5092639;28;20312;-87
2021/10/25 04:32:06;;;;;;;24.30;17.83;;;;;;;10.12;100.00;101696.09;5093766;28;20032;-80
2021/10/25 04:34:33;;;;;;;29.17;17.70;;;;;;;10.22;100.00;101697.50;5091899;28;20036;-77
2021/10/25 04:36:58;;;;;;;25.58;17.85;;;;;;;10.19;100.00;101700.25;5089717;28;20484;-77
2021/10/25 04:39:24;;;;;;;26.88;18.40;;;;;;;10.05;100.00;101700.78;5093063;28;20036;-81
2021/10/25 04:41:49;;;;;;;34.00;18.65;;;;;;;10.14;100.00;101704.84;5092366;28;20024;-77
2021/10/25 04:44:15;;;;;;;26.17;17.40;;;;;;;10.24;100.00;101701.84;5091968;28;20038;-78
2021/10/25 04:46:40;;;;;;;29.95;18.77;;;;;;;10.21;100.00;101702.84;5074400;28;20024;-78
2021/10/25 04:49:06;;;;;;;28.55;18.20;;;;;;;10.28;100.00;101698.16;5092311;28;20466;-78
2021/10/25 04:51:34;;;;;;;31.58;18.90;;;;;;;10.25;100.00;101701.81;5076833;28;20387;-78
2021/10/25 04:53:59;;;;;;;31.65;18.83;;;;;;;10.43;100.00;101699.38;5095627;28;20115;-77
2021/10/25 04:56:25;;;;;;;31.05;18.27;;;;;;;10.37;100.00;101695.16;5095430;28;20048;-78
2021/10/25 04:58:50;;;;;;;29.17;18.35;;;;;;;10.56;100.00;101700.66;5095904;28;20032;-77
2021/10/25 05:01:16;;;;;;;28.80;18.88;;;;;;;10.55;100.00;101701.59;5095657;28;20039;-77
2021/10/25 05:03:41;;;;;;;29.23;19.25;;;;;;;10.42;100.00;101698.50;5077344;28;20032;-77
2021/10/25 05:06:09;;;;;;;29.48;19.15;;;;;;;10.64;100.00;101695.06;5095321;28;20020;-77
2021/10/25 05:08:34;;;;;;;28.95;18.98;;;;;;;10.32;100.00;101695.34;5095537;28;20652;-77
2021/10/25 05:11:00;;;;;;;31.45;18.80;;;;;;;10.57;100.00;101694.44;5095116;28;20024;-78
2021/10/25 05:13:25;;;;;;;34.20;18.92;;;;;;;10.59;100.00;101683.78;5095358;28;20024;-77
2021/10/25 05:15:51;;;;;;;28.25;18.92;;;;;;;10.77;100.00;101689.28;5095619;28;20024;-79
2021/10/25 05:18:17;;;;;;;31.35;19.95;;;;;;;10.58;100.00;101696.16;5094989;28;20164;-74
2021/10/25 05:20:42;;;;;;;33.60;20.50;;;;;;;10.56;100.00;101682.13;5095369;28;20108;-76
2021/10/25 05:23:08;;;;;;;32.13;20.27;;;;;;;10.50;100.00;101689.44;5077067;28;20039;-76
2021/10/25 05:25:33;;;;;;;32.97;21.20;;;;;;;10.66;100.00;101673.84;5098255;28;20080;-82
2021/10/25 05:27:59;;;;;;;32.03;20.55;;;;;;;10.79;100.00;101683.03;5102478;28;20044;-83
2021/10/25 05:30:24;;;;;;;31.15;20.30;;;;;;;10.58;100.00;101688.25;5101675;28;20043;-85
2021/10/25 05:32:50;;;;;;;36.60;20.95;;;;;;;10.70;100.00;101688.69;5098515;28;20081;-88
2021/10/25 05:35:15;;;;;;;32.97;21.48;;;;;;;10.53;100.00;101692.84;5099369;28;20030;-80
2021/10/25 05:37:40;;;;;;;35.00;20.83;;;;;;;10.58;100.00;101690.00;5090730;28;20029;-88
2021/10/25 05:40:07;;;;;;;37.15;21.95;;;;;;;10.61;100.00;101692.53;5099651;28;20028;-87
2021/10/25 05:42:32;;;;;;;35.63;21.75;;;;;;;10.51;100.00;101678.81;5097853;28;20028;-86
2021/10/25 05:44:58;;;;;;;36.30;22.35;;;;;;;10.54;100.00;101670.75;5097315;28;20024;-80
2021/10/25 05:47:23;;;;;;;39.33;21.83;;;;;;;10.83;100.00;101678.44;5095542;28;20024;-78
2021/10/25 05:49:49;;;;;;;39.80;23.00;;;;;;;10.74;100.00;101674.41;5096346;28;20020;-78
2021/10/25 05:52:14;;;;;;;41.40;23.10;;;;;;;10.86;100.00;101680.97;5097157;28;20435;-78
2021/10/25 05:54:40;;;;;;;36.40;22.08;;;;;;;10.70;100.00;101672.81;5094177;28;20455;-79
2021/10/25 05:57:05;;;;;;;37.97;23.85;;;;;;;10.92;100.00;101675.41;5094214;28;20032;-77
2021/10/25 05:59:33;;;;;;;39.83;22.80;;;;;;;10.87;100.00;101681.84;5094932;28;20111;-75
2021/10/25 06:04:43;;;;;;;39.63;22.92;;;;;;;10.82;100.00;101674.97;5094477;28;20459;-79
2021/10/25 06:07:08;;;;;;;41.45;23.73;;;;;;;10.99;100.00;101681.34;5094403;28;20024;-76
2021/10/25 06:09:35;;;;;;;36.05;22.50;;;;;;;10.89;100.00;101678.19;5095004;28;20033;-77
2021/10/25 06:12:04;;;;;;;45.35;23.27;;;;;;;10.84;100.00;101677.53;5094654;28;20027;-76
2021/10/25 06:14:34;;;;;;;41.05;22.95;;;;;;;10.77;100.00;101674.28;5094376;28;20031;-76
2021/10/25 06:17:01;;;;;;;42.10;23.85;;;;;;;10.82;100.00;101682.03;5094395;28;20031;-76
2021/10/25 06:19:27;;;;;;;43.70;23.92;;;;;;;10.96;100.00;101682.31;5094294;28;20370;-76
2021/10/25 06:21:53;;;;;;;39.33;23.52;;;;;;;10.76;100.00;101688.44;5094152;28;20016;-77
2021/10/25 06:24:18;;;;;;;43.08;23.45;;;;;;;10.88;100.00;101683.53;5076062;28;20020;-75
2021/10/25 06:26:44;;;;;;;37.58;22.63;;;;;;;10.88;100.00;101681.78;5076661;28;20024;-76
2021/10/25 06:29:10;;;;;;;39.33;22.63;;;;;;;10.94;100.00;101678.00;5095028;28;20042;-77
2021/10/25 06:31:35;;;;;;;44.03;23.20;;;;;;;10.89;100.00;101674.72;5094781;28;20435;-77
2021/10/25 06:34:09;;;;;;;39.85;24.05;;;;;;;10.87;100.00;101673.91;5094407;28;20027;-77
2021/10/25 06:36:36;;;;;;;40.22;23.10;;;;;;;11.09;100.00;101676.53;5094140;28;20036;-78
2021/10/25 06:39:11;;;;;;;42.45;23.20;;;;;;;10.87;100.00;101684.47;5075839;28;20330;-76
2021/10/25 06:41:36;;;;;;;46.00;24.65;;;;;;;10.91;100.00;101683.41;5093936;28;20048;-78
2021/10/25 06:44:02;;;;;;;42.08;23.05;;;;;;;10.77;100.00;101682.22;5093867;28;20062;-77
2021/10/25 06:46:29;;;;;;;44.30;23.38;;;;;;;10.92;100.00;101686.00;5075937;28;20027;-77
2021/10/25 06:48:54;;;;;;;42.88;22.73;;;;;;;11.09;100.00;101687.94;5093785;28;20028;-75
2021/10/25 06:51:20;;;;;;;44.13;23.73;;;;;;;10.98;100.00;101684.03;5094000;28;20020;-79
2021/10/25 06:53:45;;;;;;;41.47;23.75;;;;;;;11.07;100.00;101683.66;5093640;28;20030;-78
2021/10/25 06:56:11;;;;;;;43.47;24.67;;;;;;;11.03;100.00;101688.22;5094445;28;20099;-76
2021/10/25 06:58:36;;;;;;;46.13;24.27;;;;;;;10.99;100.00;101693.69;5094333;28;20032;-77
2021/10/25 07:01:03;;;;;;;46.03;23.20;;;;;;;11.20;100.00;101700.75;5096411;28;20024;-78
2021/10/25 07:03:28;;;;;;;43.30;23.10;;;;;;;11.04;100.00;101694.38;5101758;28;20028;-77
2021/10/25 07:05:54;;;;;;;44.20;24.33;;;;;;;11.27;100.00;101696.06;5082932;28;20049;-80
2021/10/25 07:08:20;;;;;;;37.22;21.33;;;;;;;11.28;100.00;101702.22;5097981;28;20165;-78
2021/10/25 07:10:46;;;;;;;40.80;22.52;;;;;;;11.17;100.00;101706.16;5095687;28;20032;-79
2021/10/25 07:13:11;;;;;;;42.45;23.50;;;;;;;11.24;100.00;101697.97;5095350;28;20028;-78
2021/10/25 07:15:45;;;;;;;38.22;23.60;;;;;;;11.21;100.00;101704.25;5095193;28;20081;-77
2021/10/25 07:18:21;;;;;;;42.40;21.85;;;;;;;11.18;100.00;101707.91;5077650;28;20027;-77
2021/10/25 07:21:13;;;;;;;38.72;22.95;;;;;;;11.31;100.00;101702.94;5094132;28;20039;-77
2021/10/25 08:09:59;;;;;;;24.67;17.75;;;;;;;11.63;100.00;101736.91;4991418;28;20038;-76
2021/10/25 08:12:28;;;;;;;28.27;18.70;;;;;;;11.38;100.00;101734.44;4990751;28;20097;-75
2021/10/25 08:14:58;;;;;;;25.95;17.63;;;;;;;11.50;100.00;101733.94;4990624;28;20043;-77
2021/10/25 08:17:29;;;;;;;26.45;17.63;;;;;;;11.55;100.00;101739.91;4990595;28;20408;-75
2021/10/25 08:19:54;;;;;;;27.80;17.95;;;;;;;11.58;100.00;101741.53;4990637;28;20031;-78
2021/10/25 08:22:20;;;;;;;27.10;17.88;;;;;;;11.55;100.00;101731.09;5037764;28;20046;-78
2021/10/25 08:24:48;;;;;;;28.88;17.25;;;;;;;11.72;100.00;101735.66;5072326;28;20025;-78
2021/10/25 08:27:14;;;;;;;25.30;16.27;;;;;;;11.69;100.00;101738.44;5097689;22;20069;-80
2021/10/25 08:29:40;;;;;;;26.27;17.35;;;;;;;11.74;100.00;101736.44;5049558;28;20021;-80
2021/10/25 08:40:14;;;;;;;26.60;17.55;;;;;;;11.44;100.00;101740.34;5079553;28;20025;-80
2021/10/25 08:42:40;;;;;;;26.42;18.08;;;;;;;11.52;100.00;101739.16;5045786;28;20035;-79
2021/10/25 08:45:10;;;;;;;24.45;16.90;;;;;;;11.57;100.00;101742.47;5062140;28;20219;-81
2021/10/25 08:47:39;;;;;;;26.90;17.05;;;;;;;11.67;100.00;101737.66;5077770;28;20041;-81
2021/10/25 08:50:06;;;;;;;24.80;17.05;;;;;;;11.74;100.00;101736.44;5062745;28;20493;-81
2021/10/25 08:52:33;;;;;;;26.63;17.20;;;;;;;11.64;100.00;101737.78;5078105;28;20025;-82
2021/10/25 08:55:00;;;;;;;26.73;17.40;;;;;;;11.93;100.00;101743.59;5062233;28;20077;-80
2021/10/25 08:57:26;;;;;;;29.13;17.83;;;;;;;11.95;100.00;101734.63;5079009;28;20075;-80
2021/10/25 09:00:20;;;;;;;28.23;18.23;;;;;;;11.91;100.00;101741.00;5061533;28;20096;-83
2021/10/25 09:03:00;;;;;;;31.20;18.55;;;;;;;11.80;100.00;101738.84;5078585;28;20036;-80
2021/10/25 09:05:25;;;;;;;32.55;18.58;;;;;;;11.91;100.00;101742.78;5045062;28;20033;-82
2021/10/25 09:07:52;;;;;;;31.67;19.25;;;;;;;11.80;100.00;101746.78;5062349;28;20136;-81
2021/10/25 09:10:27;;;;;;;31.90;19.63;;;;;;;12.02;100.00;101737.88;5078505;28;20017;-81
2021/10/25 09:13:17;;;;;;;35.65;20.38;;;;;;;12.00;100.00;101733.59;5078070;28;20032;-81
2021/10/25 09:15:45;;;;;;;33.85;19.70;;;;;;;12.03;100.00;101730.81;5041494;28;20057;-84
2021/10/25 09:18:13;;;;;;;37.65;20.98;;;;;;;12.08;100.00;101727.03;5075298;28;20025;-80
2021/10/25 09:21:09;;;;;;;40.80;22.00;;;;;;;12.00;100.00;101726.50;5058227;28;20037;-80
2021/10/25 09:23:36;;;;;;;39.30;22.10;;;;;;;11.92;100.00;101734.78;4997916;28;20102;-82
2021/10/25 09:26:13;;;;;;;35.92;21.10;;;;;;;12.16;100.00;101728.50;4989492;28;20101;-81
2021/10/25 09:28:51;;;;;;;43.22;21.75;;;;;;;12.03;100.00;101726.38;4967770;28;20047;-80
2021/10/25 09:31:21;;;;;;;38.95;20.73;;;;;;;12.19;100.00;101729.19;4948965;28;20093;-85
2021/10/25 09:34:03;;;;;;;40.20;22.08;;;;;;;12.15;100.00;101721.44;4965940;28;20037;-87
2021/10/25 09:36:35;;;;;;;42.33;22.15;;;;;;;12.49;100.00;101727.00;4978637;28;20078;-83
2021/10/25 09:39:12;;;;;;;38.17;21.35;;;;;;;12.29;100.00;101727.00;4979431;28;20069;-85
2021/10/25 09:50:04;;;;;;;33.80;20.17;;;;;;;12.52;100.00;101718.91;4978268;28;20041;-84
2021/10/25 09:52:35;;;;;;;37.53;21.08;;;;;;;12.45;100.00;101713.88;4962896;28;20118;-82
2021/10/25 09:55:03;;;;;;;35.88;21.98;;;;;;;12.62;100.00;101716.66;4978841;28;20038;-81
2021/10/25 10:00:16;;;;;;;36.42;21.17;;;;;;;12.62;100.00;101719.31;5019636;28;20048;-83
2021/10/25 10:02:42;;;;;;;36.17;21.02;;;;;;;12.83;100.00;101717.44;5045294;28;20042;-84
2021/10/25 10:05:11;;;;;;;37.50;21.83;;;;;;;12.90;100.00;101718.84;5079403;28;20084;-82
2021/10/25 10:07:36;;;;;;;33.95;20.25;;;;;;;12.80;100.00;101713.09;5080285;28;20027;-81
2021/10/25 10:10:03;;;;;;;34.55;21.33;;;;;;;12.75;100.00;101709.84;5079844;28;20037;-81
2021/10/25 10:12:28;;;;;;;36.30;21.35;;;;;;;12.73;100.00;101713.47;5079830;28;20017;-82
2021/10/25 10:14:56;;;;;;;34.20;20.85;;;;;;;12.74;100.00;101702.78;5081612;28;20071;-82
2021/10/25 10:17:27;;;;;;;32.63;20.60;;;;;;;12.58;100.00;101714.13;5082825;28;20029;-82
2021/10/25 10:19:56;;;;;;;35.83;21.00;;;;;;;13.04;100.00;101714.63;5035641;28;20494;-82
2021/10/25 10:22:21;;;;;;;32.88;20.83;;;;;;;12.78;100.00;101712.34;5038624;28;20048;-82
2021/10/25 10:24:50;;;;;;;33.95;21.05;;;;;;;12.81;100.00;101711.31;5070837;28;20035;-81
2021/10/25 10:27:20;;;;;;;32.00;19.88;;;;;;;12.80;100.00;101704.31;5077750;28;20063;-82
2021/10/25 10:29:53;;;;;;;33.40;20.42;;;;;;;12.84;100.00;101708.53;5042990;28;20036;-85
2021/10/25 10:32:20;;;;;;;34.10;20.77;;;;;;;12.99;100.00;101698.09;5027345;28;20035;-82
2021/10/25 10:34:50;;;;;;;34.42;21.40;;;;;;;12.74;100.00;101697.47;5059714;28;20021;-82
2021/10/25 10:37:26;;;;;;;36.40;22.50;;;;;;;12.88;100.00;101702.13;5077270;28;20012;-84
2021/10/25 10:40:07;;;;;;;33.20;20.15;;;;;;;13.12;100.00;101703.63;5076668;28;20119;-81
2021/10/25 10:42:41;;;;;;;32.45;20.45;;;;;;;12.92;100.00;101700.19;5041817;28;20475;-82
2021/10/25 10:45:09;;;;;;;36.75;21.45;;;;;;;12.77;100.00;101705.28;5077217;28;20033;-84
2021/10/25 10:47:53;;;;;;;39.78;22.50;;;;;;;12.89;100.00;101706.50;5075982;28;20035;-82
2021/10/25 10:50:29;;;;;;;33.17;20.88;;;;;;;13.31;100.00;101699.13;5059797;28;20035;-82
2021/10/25 10:53:10;;;;;;;34.42;21.55;;;;;;;13.50;100.00;101707.94;5076870;28;20536;-82
2021/10/25 10:55:41;;;;;;;32.80;20.73;;;;;;;13.29;100.00;101710.75;5059741;28;20025;-82
2021/10/25 11:00:52;;;;;;;34.58;20.92;;;;;;;13.25;100.00;101707.41;5075292;28;20086;-82
2021/10/25 11:03:24;;;;;;;35.45;20.98;;;;;;;13.27;100.00;101713.47;5059480;28;20083;-81
2021/10/25 11:06:00;;;;;;;36.05;21.13;;;;;;;13.23;100.00;101709.25;5076836;28;20417;-81
2021/10/25 11:08:49;;;;;;;36.13;21.83;;;;;;;13.52;100.00;101720.25;5077646;28;20104;-81
2021/10/25 11:11:19;;;;;;;37.08;21.52;;;;;;;13.40;100.00;101716.38;4997515;28;20101;-84
2021/10/25 11:14:00;;;;;;;36.10;20.45;;;;;;;13.14;100.00;101717.69;4996856;28;20038;-82
2021/10/25 11:16:38;;;;;;;37.40;20.85;;;;;;;13.15;100.00;101708.78;4981628;28;20048;-81
2021/10/25 11:19:04;;;;;;;37.95;21.58;;;;;;;13.38;100.00;101720.06;4981700;28;20070;-81
2021/10/25 11:21:36;;;;;;;41.30;22.80;;;;;;;13.17;100.00;101715.75;4982629;28;20045;-82
2021/10/25 11:24:06;;;;;;;36.85;21.63;;;;;;;13.04;100.00;101710.19;4968129;28;20030;-82
2021/10/25 11:26:37;;;;;;;41.50;22.38;;;;;;;13.25;100.00;101714.50;5002092;28;20058;-79
2021/10/25 11:29:02;;;;;;;43.58;23.60;;;;;;;13.10;100.00;101719.63;5001599;28;20046;-82
2021/10/25 11:31:29;;;;;;;44.05;23.02;;;;;;;13.00;100.00;101711.28;5001830;28;20066;-80
2021/10/25 11:33:55;;;;;;;42.63;22.83;;;;;;;13.26;100.00;101710.91;5003987;28;20093;-80
2021/10/25 11:36:24;;;;;;;39.60;22.85;;;;;;;13.39;100.00;101705.84;5007815;28;20038;-81
2021/10/25 11:38:50;;;;;;;37.95;22.50;;;;;;;13.09;100.00;101709.97;4995906;28;20034;-81
2021/10/25 11:41:15;;;;;;;40.55;22.85;;;;;;;12.98;100.00;101705.19;5003339;28;20035;-80
2021/10/25 11:43:41;;;;;;;42.30;22.77;;;;;;;13.24;100.00;101708.31;4996505;28;20065;-82
2021/10/25 11:46:33;;;;;;;39.63;22.80;;;;;;;13.51;100.00;101704.38;4979298;28;20030;-81
2021/10/25 11:49:02;;;;;;;40.83;22.13;;;;;;;13.50;100.00;101702.63;5061265;28;20090;-82
2021/10/25 11:51:29;;;;;;;42.33;22.48;;;;;;;13.33;100.00;101696.38;5078252;28;20028;-81
2021/10/25 11:54:19;;;;;;;40.28;22.15;;;;;;;13.65;100.00;101696.53;5079255;28;20092;-81
2021/10/25 11:56:54;;;;;;;37.45;21.35;;;;;;;13.43;100.00;101694.13;5000483;28;20480;-80
2021/10/25 11:59:24;;;;;;;38.45;21.63;;;;;;;13.36;100.00;101692.69;5019016;28;20191;-82
2021/10/25 12:01:52;;;;;;;40.63;21.95;;;;;;;13.20;100.00;101686.38;5025480;28;20087;-81
2021/10/25 12:04:19;;;;;;;39.83;21.98;;;;;;;13.56;100.00;101684.59;5008511;28;20030;-81
2021/10/25 12:06:54;;;;;;;43.97;22.63;;;;;;;13.81;100.00;101691.28;5025087;28;20045;-81
2021/10/25 12:09:21;;;;;;;42.13;21.88;;;;;;;13.57;100.00;101688.97;5025065;28;20084;-82
2021/10/25 12:14:17;;;;;;;39.15;21.08;;;;;;;13.61;100.00;101680.84;5004140;28;20051;-83
2021/10/25 12:16:48;;;;;;;42.25;22.42;;;;;;;13.38;100.00;101688.19;5003848;28;20074;-82
2021/10/25 12:19:16;;;;;;;44.58;22.60;;;;;;;13.50;100.00;101682.25;5003768;28;20077;-81
2021/10/25 12:21:45;;;;;;;39.92;21.42;;;;;;;13.44;100.00;101678.09;5018856;28;20125;-81
2021/10/25 12:24:11;;;;;;;41.55;21.73;;;;;;;13.70;100.00;101678.56;5018623;28;20404;-81
2021/10/25 12:29:17;;;;;;;40.72;21.48;;;;;;;13.58;100.00;101685.38;5095229;28;20044;-77
2021/10/25 12:31:44;;;;;;;42.58;21.83;;;;;;;13.60;100.00;101680.00;5096557;28;20028;-75
2021/10/25 12:34:10;;;;;;;37.92;20.95;;;;;;;13.65;100.00;101682.41;5096858;28;20024;-76
2021/10/25 12:36:37;;;;;;;42.28;22.20;;;;;;;13.77;100.00;101687.06;5096389;28;20077;-78
2021/10/25 12:39:06;;;;;;;39.38;21.60;;;;;;;13.58;100.00;101687.19;5096082;28;20474;-76
2021/10/25 12:41:32;;;;;;;41.03;22.13;;;;;;;13.40;100.00;101681.84;5096156;28;20020;-76
2021/10/25 12:43:59;;;;;;;37.47;20.70;;;;;;;13.52;100.00;101679.53;5078040;28;20036;-76
2021/10/25 12:46:32;;;;;;;40.47;21.77;;;;;;;13.65;100.00;101685.06;5078157;28;20493;-76
2021/10/25 12:48:58;;;;;;;38.08;21.80;;;;;;;13.73;100.00;101682.84;5078706;28;20109;-78
2021/10/25 12:51:37;;;;;;;35.58;20.20;;;;;;;13.66;100.00;101684.13;5095910;28;20028;-77
2021/10/25 12:54:11;;;;;;;39.85;21.65;;;;;;;13.51;100.00;101683.97;5096337;28;20024;-77
2021/10/25 12:56:37;;;;;;;37.70;20.75;;;;;;;13.79;100.00;101687.00;5095657;28;20484;-77